createdAt,value
2019-06-07T00:01:52.809Z,99.90
2019-06-07T00:03:56.979Z,99.90
2019-06-07T00:06:02.834Z,99.90
2019-06-07T00:08:11.282Z,99.90
2019-06-07T00:10:31.236Z,99.90
2019-06-07T00:12:21.615Z,99.90
2019-06-07T00:14:25.252Z,99.90
2019-06-07T00:16:29.428Z,99.90
2019-06-07T00:18:33.576Z,99.90
2019-06-07T00:20:37.773Z,99.90
2019-06-07T00:22:41.951Z,99.90
2019-06-07T00:24:46.112Z,99.90
2019-06-07T00:26:58.274Z,99.90
2019-06-07T00:28:57.210Z,99.90
2019-06-07T00:31:01.467Z,99.90
2019-06-07T00:33:06.821Z,99.90
2019-06-07T00:35:17.118Z,99.90
2019-06-07T00:37:25.177Z,99.90
2019-06-07T00:39:26.612Z,99.90
2019-06-07T00:41:30.791Z,99.90
2019-06-07T00:43:34.971Z,99.90
2019-06-07T00:45:39.130Z,99.90
2019-06-07T00:47:43.423Z,99.90
2019-06-07T00:49:47.672Z,99.90
2019-06-07T00:51:53.601Z,99.90
2019-06-07T00:53:57.864Z,99.90
2019-06-07T00:56:02.020Z,99.90
2019-06-07T00:58:06.303Z,99.90
2019-06-07T01:00:14.764Z,99.90
2019-06-07T01:02:21.464Z,99.90
2019-06-07T01:04:26.014Z,99.90
2019-06-07T01:06:30.485Z,99.90
2019-06-07T01:08:34.779Z,99.90
2019-06-07T01:10:52.817Z,99.90
2019-06-07T01:12:44.860Z,99.90
2019-06-07T01:14:49.048Z,99.90
2019-06-07T01:16:59.454Z,99.90
2019-06-07T01:18:59.132Z,99.90
2019-06-07T01:21:03.291Z,99.90
2019-06-07T01:23:52.029Z,99.90
2019-06-07T01:25:13.550Z,99.90
2019-06-07T01:27:19.022Z,99.90
2019-06-07T01:29:24.972Z,99.90
2019-06-07T01:31:31.507Z,99.90
2019-06-07T01:33:50.465Z,99.90
2019-06-07T01:35:41.508Z,99.90
2019-06-07T01:37:45.733Z,99.90
2019-06-07T01:39:49.912Z,99.90
2019-06-07T01:41:54.160Z,99.90
2019-06-07T01:43:59.018Z,99.90
2019-06-07T01:46:03.271Z,99.90
2019-06-07T01:48:07.441Z,99.90
2019-06-07T01:50:13.034Z,99.90
2019-06-07T01:52:19.405Z,99.90
2019-06-07T01:56:29.943Z,99.90
2019-06-07T01:58:34.240Z,99.90
2019-06-07T02:00:38.422Z,99.90
2019-06-07T02:02:42.685Z,99.90
2019-06-07T02:04:48.181Z,99.90
2019-06-07T02:06:52.616Z,99.90
2019-06-07T02:08:56.783Z,99.90
2019-06-07T02:11:00.955Z,99.90
2019-06-07T02:13:05.319Z,99.90
2019-06-07T02:15:09.890Z,99.90
2019-06-07T02:17:14.133Z,99.90
2019-06-07T02:19:19.428Z,99.90
2019-06-07T02:21:26.006Z,99.90
2019-06-07T02:23:31.652Z,99.90
2019-06-07T02:25:43.776Z,99.90
2019-06-07T02:27:41.783Z,99.90
2019-06-07T02:29:45.949Z,99.90
2019-06-07T02:31:50.140Z,99.90
2019-06-07T02:33:54.280Z,99.90
2019-06-07T02:35:58.519Z,99.90
2019-06-07T02:38:02.745Z,99.90
2019-06-07T02:40:07.352Z,99.90
2019-06-07T02:42:11.582Z,99.90
2019-06-07T02:44:15.746Z,99.90
2019-06-07T02:46:32.552Z,99.90
2019-06-07T02:48:35.322Z,99.90
2019-06-07T02:50:38.812Z,99.90
2019-06-07T02:52:42.362Z,99.90
2019-06-07T02:54:46.750Z,99.90
2019-06-07T02:56:58.146Z,99.90
2019-06-07T02:58:56.882Z,99.90
2019-06-07T03:01:08.364Z,99.90
2019-06-07T03:03:07.212Z,99.90
2019-06-07T03:05:12.829Z,99.90
2019-06-07T03:07:18.571Z,99.90
2019-06-07T03:09:22.719Z,99.90
2019-06-07T03:11:31.185Z,99.90
2019-06-07T03:13:40.787Z,99.90
2019-06-07T03:15:50.029Z,99.90
2019-06-07T03:18:03.456Z,99.90
2019-06-07T03:20:09.683Z,99.90
2019-06-07T03:22:13.865Z,99.90
2019-06-07T03:24:18.055Z,99.90
2019-06-07T03:26:23.736Z,99.90
2019-06-07T03:28:30.178Z,99.90
2019-06-07T03:30:46.948Z,99.90
2019-06-07T03:32:47.552Z,99.90
2019-06-07T03:34:47.281Z,99.90
2019-06-07T06:58:16.166Z,98.10
2019-06-07T07:00:43.096Z,98.70
2019-06-07T07:02:33.148Z,98.30
2019-06-07T07:04:37.400Z,98.50
2019-06-07T07:06:42.741Z,98.10
2019-06-07T07:08:48.239Z,98.10
2019-06-07T07:10:55.096Z,98.10
2019-06-07T07:12:59.215Z,97.90
2019-06-07T07:15:06.267Z,97.70
2019-06-07T07:17:10.708Z,97.40
2019-06-07T07:19:15.056Z,96.70
2019-06-07T07:21:19.267Z,97.20
2019-06-07T07:23:25.221Z,97.00
2019-06-07T07:25:29.427Z,97.10
2019-06-07T07:27:33.678Z,97.20
2019-06-07T07:29:37.857Z,97.10
2019-06-07T07:31:43.006Z,97.20
2019-06-07T07:36:18.511Z,96.70
2019-06-07T12:57:00.080Z,91.70
2019-06-07T12:59:04.537Z,92.50
2019-06-07T13:09:24.426Z,92.30
2019-06-07T13:11:31.545Z,92.40
2019-06-07T13:13:34.577Z,92.70
2019-06-07T13:15:38.801Z,92.90
2019-06-07T13:17:42.999Z,92.60
2019-06-07T13:19:47.198Z,92.40
2019-06-07T13:21:53.671Z,92.40
2019-06-07T13:23:57.867Z,91.80
2019-06-07T13:26:02.133Z,91.90
2019-06-07T13:28:06.567Z,92.30
2019-06-07T13:30:12.088Z,92.80
2019-06-07T13:32:17.433Z,92.20
2019-06-07T13:34:22.402Z,92.40
2019-06-07T13:36:28.558Z,92.40
2019-06-07T13:38:32.811Z,92.70
2019-06-07T13:40:37.005Z,93.00
2019-06-07T13:42:41.243Z,92.50
2019-06-07T13:44:45.455Z,92.10
2019-06-07T13:46:51.734Z,91.50
2019-06-07T13:48:55.887Z,92.20
2019-06-07T13:51:00.114Z,91.70
2019-06-07T13:53:04.283Z,91.90
2019-06-07T13:55:08.953Z,92.30
2019-06-07T13:57:15.107Z,92.00
2019-06-07T13:59:20.458Z,91.90
2019-06-07T14:01:24.759Z,91.90
2019-06-07T14:03:33.352Z,92.20
2019-06-07T14:05:34.854Z,92.80
2019-06-07T14:07:39.005Z,92.40
2019-06-07T14:09:43.168Z,92.80
2019-06-07T14:11:50.927Z,93.10
2019-06-07T14:13:53.852Z,93.20
2019-06-07T14:15:59.870Z,92.90
2019-06-07T14:18:04.085Z,92.70
2019-06-07T14:20:10.483Z,92.90
2019-06-07T14:22:15.139Z,92.80
2019-06-07T14:24:19.336Z,92.40
2019-06-07T14:26:23.530Z,92.80
2019-06-07T14:28:30.861Z,92.80
2019-06-07T14:30:35.473Z,92.80
2019-06-07T14:32:40.211Z,92.50
2019-06-07T14:34:45.540Z,93.10
2019-06-07T14:36:49.706Z,92.80
2019-06-07T14:38:53.885Z,92.20
2019-06-07T14:40:58.392Z,91.60
2019-06-07T14:43:02.762Z,91.40
2019-06-07T14:45:07.568Z,91.40
2019-06-07T14:47:14.757Z,91.60
2019-06-07T14:49:18.983Z,91.40
2019-06-07T14:51:24.183Z,90.80
2019-06-07T14:53:28.781Z,90.70
2019-06-07T14:55:33.125Z,90.70
2019-06-07T14:57:37.362Z,90.40
2019-06-07T14:59:41.681Z,90.60
2019-06-07T15:01:45.868Z,91.20
2019-06-07T15:03:50.044Z,90.60
2019-06-07T15:05:54.219Z,91.00
2019-06-07T15:07:58.427Z,91.00
2019-06-07T15:10:02.964Z,91.40
2019-06-07T15:12:07.159Z,91.90
2019-06-07T15:14:12.506Z,92.20
2019-06-07T15:16:17.712Z,92.20
2019-06-07T15:18:21.896Z,92.60
2019-06-07T15:20:26.071Z,92.90
2019-06-07T15:22:32.096Z,93.00
2019-06-07T15:24:40.630Z,93.80
2019-06-07T15:26:44.934Z,94.10
2019-06-07T15:28:49.222Z,94.00
2019-06-07T15:30:53.459Z,93.90
2019-06-07T15:32:59.771Z,94.10
2019-06-07T15:35:03.557Z,94.20
2019-06-07T15:37:07.785Z,94.10
2019-06-07T15:39:11.989Z,94.10
2019-06-07T15:41:16.270Z,94.30
2019-06-07T15:43:20.526Z,94.70
2019-06-07T15:45:24.776Z,94.50
2019-06-07T15:47:29.576Z,94.30
2019-06-07T15:49:38.124Z,94.50
2019-06-07T15:51:42.540Z,94.40
2019-06-07T15:53:46.705Z,94.70
2019-06-07T15:55:51.091Z,94.50
2019-06-07T15:57:55.466Z,94.60
2019-06-07T15:59:59.626Z,94.60
2019-06-07T16:02:04.051Z,94.90
2019-06-07T16:04:08.262Z,94.80
2019-06-07T16:06:12.472Z,94.90
2019-06-07T16:08:16.663Z,94.80
2019-06-07T16:10:20.965Z,95.00
2019-06-07T16:12:25.156Z,95.10
2019-06-07T16:14:29.356Z,95.10
2019-06-07T16:16:34.832Z,95.40
2019-06-07T16:18:39.788Z,95.50
2019-06-07T16:20:44.479Z,95.20
2019-06-07T16:22:48.729Z,94.90
2019-06-07T16:24:52.983Z,95.60
2019-06-07T16:26:57.179Z,95.00
2019-06-07T16:29:01.451Z,95.10
2019-06-07T16:31:05.747Z,95.00
2019-06-07T16:33:10.032Z,95.20
2019-06-07T16:35:14.824Z,95.40
2019-06-07T16:37:19.166Z,95.60
2019-06-07T16:39:23.327Z,95.60
2019-06-07T16:41:27.527Z,95.60
2019-06-07T16:43:31.752Z,95.70
2019-06-07T16:45:36.482Z,96.00
2019-06-07T16:47:43.766Z,95.80
2019-06-07T16:49:50.152Z,95.90
2019-06-07T16:51:54.415Z,96.10
2019-06-07T16:54:00.257Z,96.00
2019-06-07T16:56:06.136Z,95.90
2019-06-07T16:58:10.387Z,96.00
2019-06-07T17:00:16.041Z,95.90
2019-06-07T17:02:24.074Z,95.80
2019-06-07T17:04:28.288Z,96.10
2019-06-07T17:06:32.538Z,96.20
2019-06-07T17:08:37.923Z,96.30
2019-06-07T17:10:44.244Z,96.30
2019-06-07T17:12:50.667Z,96.60
2019-06-07T17:14:55.136Z,96.70
2019-06-07T17:16:59.291Z,96.90
2019-06-07T17:19:03.475Z,96.60
2019-06-07T17:21:07.664Z,96.60
2019-06-07T17:23:11.831Z,96.80
2019-06-07T17:25:17.654Z,96.70
2019-06-07T17:27:21.826Z,96.90
2019-06-07T17:29:26.444Z,97.00
2019-06-07T17:31:30.618Z,96.90
2019-06-07T17:33:34.833Z,97.00
2019-06-07T17:35:42.146Z,97.00
2019-06-07T17:37:49.142Z,97.10
2019-06-07T17:39:52.788Z,97.40
2019-06-07T17:42:02.154Z,96.90
2019-06-07T17:44:02.924Z,97.10
2019-06-07T17:46:07.351Z,97.00
2019-06-07T17:48:11.558Z,97.20
2019-06-07T17:50:17.090Z,97.00
2019-06-07T17:52:21.273Z,97.00
2019-06-07T17:54:25.447Z,97.20
2019-06-07T17:56:29.710Z,97.20
2019-06-07T17:58:36.548Z,97.10
2019-06-07T18:00:50.848Z,97.30
2019-06-07T18:02:55.761Z,97.50
2019-06-07T18:05:00.334Z,97.50
2019-06-07T18:07:04.518Z,97.60
2019-06-07T18:09:13.972Z,98.00
2019-06-07T18:11:17.027Z,97.80
